Time;durP1;ratioP1;P1;durP2;ratioP2;P2;SDS_P1;SDS_P2;PMS_P1;PMS_P2;Temp;Humidity;BMP_temperature;BMP_pressure;BME280_temperature;BME280_humidity;BME280_pressure;Samples;Min_cycle;Max_cycle;Signal;HPM_P1;HPM_P2
2021/03/27 00:00:17;;;;;;;4.53;0.73;;;6.70;99.90;;;6.75;95.60;101054.94;5019330;28;20427;-62
2021/03/27 00:02:54;;;;;;;2.88;0.68;;;6.70;99.90;;;6.73;95.33;101052.38;5002276;28;20034;-66
2021/03/27 00:05:54;;;;;;;1.27;0.68;;;6.70;99.90;;;6.56;95.68;101046.13;5031880;28;20029;-65
2021/03/27 00:08:50;;;;;;;2.67;0.85;;;6.70;99.90;;;6.65;95.23;101052.41;5011094;28;22689;-65
2021/03/27 00:12:04;;;;;;;1.60;0.77;;;6.80;99.90;;;6.63;94.75;101049.00;5016766;28;20033;-65
2021/03/27 00:14:40;;;;;;;2.97;0.60;;;6.70;99.90;;;6.64;94.64;101045.31;5001780;28;20041;-66
2021/03/27 00:17:15;;;;;;;5.25;0.90;;;6.70;99.90;;;6.63;95.25;101046.31;5002406;28;20041;-64
2021/03/27 00:19:56;;;;;;;1.05;0.47;;;6.70;99.90;;;6.48;95.47;101056.09;5033047;28;20037;-65
2021/03/27 00:22:31;;;;;;;5.70;0.98;;;6.60;99.90;;;6.56;95.26;101047.97;5004639;28;20518;-65
2021/03/27 00:25:17;;;;;;;3.72;2.10;;;6.60;99.90;;;6.55;95.01;101057.97;5020679;28;20037;-64
2021/03/27 00:27:52;;;;;;;1.48;0.57;;;6.60;99.90;;;6.49;95.74;101052.38;5030810;28;20041;-65
2021/03/27 00:30:32;;;;;;;0.60;0.47;;;6.60;99.90;;;6.50;95.67;101056.78;5004137;28;20033;-66
2021/03/27 00:32:59;;;;;;;3.03;0.88;;;6.60;99.90;;;6.54;95.48;101055.44;4998478;28;20033;-64
2021/03/27 00:35:30;;;;;;;3.63;0.85;;;6.60;99.90;;;6.49;96.18;101071.31;5001215;28;20041;-64
2021/03/27 00:38:01;;;;;;;8.60;2.00;;;6.50;99.90;;;6.58;96.02;101070.31;5013041;28;20053;-65
2021/03/27 00:40:32;;;;;;;3.90;0.98;;;6.60;99.90;;;6.50;96.68;101059.50;5014152;28;20037;-65
2021/03/27 00:43:12;;;;;;;8.23;1.30;;;6.60;99.90;;;6.49;96.22;101063.22;5017349;28;20021;-63
2021/03/27 00:45:45;;;;;;;5.15;0.85;;;6.60;99.90;;;6.46;96.74;101058.97;5016957;28;20029;-62
2021/03/27 00:48:17;;;;;;;3.17;0.80;;;6.60;99.90;;;6.52;96.57;101054.75;5016542;28;20090;-61
2021/03/27 00:50:55;;;;;;;3.00;1.15;;;6.60;99.90;;;6.56;96.53;101054.25;5018513;28;20033;-62
2021/03/27 00:53:49;;;;;;;2.58;0.88;;;6.60;99.90;;;6.58;96.16;101056.78;5016013;28;20392;-62
2021/03/27 00:56:32;;;;;;;1.73;0.75;;;6.60;99.90;;;6.68;96.38;101062.84;5017987;28;20489;-61
2021/03/27 00:59:20;;;;;;;4.22;1.00;;;6.60;99.90;;;6.66;96.51;101062.19;5020830;28;20029;-62
2021/03/27 01:01:50;;;;;;;3.90;1.00;;;6.70;99.90;;;6.65;96.55;101056.97;5018752;28;20041;-62
2021/03/27 01:04:20;;;;;;;3.33;1.60;;;6.70;99.90;;;6.73;95.93;101065.06;5004660;28;20072;-61
2021/03/27 01:07:00;;;;;;;1.92;0.88;;;6.70;99.90;;;6.79;94.88;101069.78;5019517;28;20083;-61
2021/03/27 01:09:49;;;;;;;7.88;1.85;;;6.70;99.90;;;6.58;95.44;101067.59;5036339;28;20094;-61
2021/03/27 01:12:36;;;;;;;4.00;0.90;;;6.70;99.90;;;6.51;95.50;101067.44;5003324;28;20045;-61
2021/03/27 01:15:14;;;;;;;11.77;1.38;;;6.60;99.90;;;6.50;95.09;101070.31;5011637;28;20392;-62
2021/03/27 01:17:44;;;;;;;3.90;0.90;;;6.60;99.90;;;6.54;94.76;101066.25;5005972;28;20044;-62
2021/03/27 01:20:16;;;;;;;3.03;0.80;;;6.50;99.90;;;6.59;94.23;101063.88;5000269;28;20057;-61
2021/03/27 01:22:47;;;;;;;8.60;2.05;;;6.60;99.90;;;6.50;94.48;101064.91;5017388;28;20135;-61
2021/03/27 01:25:19;;;;;;;15.45;1.98;;;6.50;99.90;;;6.45;94.23;101073.50;5002936;28;20133;-61
2021/03/27 01:27:52;;;;;;;7.18;1.35;;;6.50;99.90;;;6.28;95.44;101071.81;4999631;28;20091;-62
2021/03/27 01:30:46;;;;;;;3.13;1.25;;;6.40;99.90;;;6.18;95.77;101080.09;5015216;28;20518;-61
2021/03/27 01:33:36;;;;;;;6.38;1.05;;;6.30;99.90;;;6.11;96.16;101079.03;5019962;28;20038;-61
2021/03/27 01:36:13;;;;;;;6.47;1.05;;;6.20;99.90;;;6.02;96.41;101071.06;5017355;28;20041;-61
2021/03/27 01:39:07;;;;;;;3.83;1.00;;;6.20;99.90;;;6.01;96.94;101074.78;5012340;28;20033;-62
2021/03/27 01:42:23;;;;;;;6.00;1.08;;;6.10;99.90;;;5.94;96.95;101077.31;5014573;28;20437;-62
2021/03/27 01:45:03;;;;;;;3.25;1.27;;;6.00;99.90;;;5.82;97.59;101089.41;5007282;28;20136;-62
2021/03/27 01:47:41;;;;;;;9.10;2.10;;;5.90;99.90;;;5.76;96.80;101081.94;5012480;28;20037;-62
2021/03/27 01:50:46;;;;;;;11.35;1.80;;;5.90;99.90;;;5.68;96.79;101096.25;5017969;28;20049;-62
2021/03/27 01:53:34;;;;;;;7.35;1.33;;;5.80;99.90;;;5.77;96.66;101091.72;5001941;28;20060;-62
2021/03/27 01:56:18;;;;;;;7.53;1.75;;;5.80;99.90;;;5.65;96.65;101093.03;5033641;28;20084;-61
2021/03/27 01:59:12;;;;;;;9.90;2.00;;;5.70;99.90;;;5.56;96.75;101102.09;5035885;28;20095;-62
2021/03/27 02:01:57;;;;;;;9.98;1.80;;;5.70;99.90;;;5.63;96.64;101101.31;5011567;28;20060;-63
2021/03/27 02:04:38;;;;;;;7.13;1.90;;;5.70;99.90;;;5.59;96.64;101101.78;5012788;28;20041;-64
2021/03/27 02:07:18;;;;;;;15.00;1.77;;;5.70;99.90;;;5.58;97.00;101100.09;5013665;28;20026;-62
2021/03/27 02:10:09;;;;;;;8.82;1.77;;;5.70;99.90;;;5.78;95.71;101093.44;5021063;28;20461;-62
2021/03/27 02:13:18;;;;;;;14.40;2.00;;;5.70;99.90;;;5.79;96.73;101097.81;5013884;28;20076;-62
2021/03/27 02:16:19;;;;;;;6.10;1.33;;;5.70;99.90;;;5.91;96.86;101104.66;4995643;28;20047;-64
2021/03/27 02:19:25;;;;;;;10.95;1.50;;;5.80;99.90;;;5.91;96.93;101115.47;5014200;28;20045;-64
2021/03/27 02:22:15;;;;;;;9.32;1.63;;;5.90;99.90;;;6.07;96.77;101110.13;5020893;28;20037;-62
2021/03/27 02:24:41;;;;;;;26.52;3.08;;;6.00;99.90;;;6.18;95.91;101109.81;5024314;28;20026;-62
2021/03/27 02:27:21;;;;;;;9.13;1.70;;;6.10;99.90;;;6.17;95.11;101113.53;5025157;28;20046;-61
2021/03/27 02:30:18;;;;;;;10.70;1.67;;;6.20;99.90;;;6.26;94.11;101106.28;5027306;28;20046;-61
2021/03/27 02:32:51;;;;;;;11.02;2.33;;;6.20;99.90;;;6.32;92.84;101104.78;5019654;28;20404;-62
2021/03/27 02:35:56;;;;;;;8.03;1.87;;;6.30;99.90;;;6.41;91.93;101109.19;5018137;28;20040;-62
2021/03/27 02:38:38;;;;;;;12.15;1.52;;;6.30;99.90;;;6.38;90.93;101110.34;5010615;28;20898;-62
2021/03/27 02:41:32;;;;;;;12.57;2.50;;;6.40;99.90;;;6.36;89.62;101111.53;5020947;28;20091;-62
2021/03/27 02:44:38;;;;;;;7.38;2.67;;;6.40;99.90;;;6.19;89.17;101122.31;5002584;28;20037;-62
2021/03/27 02:47:32;;;;;;;4.75;1.42;;;6.30;99.90;;;6.19;89.21;101116.06;5005011;28;20699;-61
2021/03/27 02:50:16;;;;;;;4.90;1.15;;;6.30;99.90;;;6.13;89.49;101112.16;5023191;28;20505;-61
2021/03/27 02:53:14;;;;;;;10.48;1.35;;;6.20;99.90;;;6.17;89.08;101124.34;5018436;28;20846;-62
2021/03/27 02:56:32;;;;;;;8.07;1.73;;;6.20;99.90;;;6.32;89.03;101126.41;5020139;28;20067;-61
2021/03/27 02:59:20;;;;;;;7.53;1.60;;;6.20;99.90;;;6.45;89.58;101132.16;5002988;28;20484;-61
2021/03/27 03:02:23;;;;;;;9.65;1.27;;;6.40;99.90;;;6.58;90.14;101135.22;5020906;28;20516;-61
2021/03/27 03:05:13;;;;;;;10.05;1.63;;;6.40;99.90;;;6.64;90.20;101142.66;5017084;28;20039;-61
2021/03/27 03:08:06;;;;;;;10.48;1.67;;;6.50;99.90;;;6.56;89.62;101140.78;5019422;28;20038;-61
2021/03/27 03:10:57;;;;;;;9.98;1.67;;;6.50;99.90;;;6.48;89.46;101137.22;5012751;28;20040;-62
2021/03/27 03:13:55;;;;;;;7.55;1.88;;;6.50;99.90;;;6.59;89.07;101153.13;5017436;28;20030;-62
2021/03/27 03:16:37;;;;;;;11.70;2.13;;;6.50;99.90;;;6.66;89.13;101140.63;5037856;28;20037;-63
2021/03/27 03:19:17;;;;;;;21.77;2.38;;;6.50;99.90;;;6.74;89.29;101153.31;5008331;28;20079;-61
2021/03/27 03:22:21;;;;;;;15.18;2.25;;;6.60;99.90;;;6.64;89.73;101150.78;5016217;28;20049;-61
2021/03/27 03:25:05;;;;;;;7.93;1.30;;;6.60;99.90;;;6.65;89.29;101151.63;5028573;28;20139;-61
2021/03/27 03:28:16;;;;;;;10.48;1.75;;;6.70;99.90;;;6.70;88.81;101163.63;5015723;28;20030;-62
2021/03/27 03:31:07;;;;;;;6.45;1.60;;;6.70;99.90;;;6.74;88.26;101165.00;4999649;28;20048;-61
2021/03/27 03:34:07;;;;;;;10.95;2.17;;;6.80;99.90;;;6.77;87.77;101161.94;5019186;28;20036;-65
2021/03/27 03:37:10;;;;;;;10.98;1.80;;;6.80;99.90;;;6.75;87.12;101166.69;5019242;28;20095;-61
2021/03/27 03:40:19;;;;;;;12.05;3.03;;;6.80;99.90;;;6.78;85.93;101179.84;5018445;28;20044;-62
2021/03/27 03:43:18;;;;;;;10.85;1.70;;;6.80;99.90;;;6.82;84.65;101189.34;5020869;28;20380;-61
2021/03/27 03:46:18;;;;;;;6.60;1.90;;;6.80;99.90;;;6.87;84.23;101195.13;5020077;28;20065;-61
2021/03/27 03:49:19;;;;;;;11.18;2.40;;;6.80;99.90;;;6.85;83.63;101204.41;5022818;28;21919;-61
2021/03/27 03:52:15;;;;;;;11.40;2.30;;;6.80;99.90;;;6.92;83.12;101192.72;5021299;28;20045;-62
2021/03/27 03:55:04;;;;;;;8.98;1.75;;;6.80;99.90;;;6.92;82.73;101210.81;5022502;28;20033;-61
2021/03/27 03:57:30;;;;;;;12.10;1.40;;;6.80;99.90;;;6.96;81.97;101211.34;5020559;28;20030;-61
2021/03/27 04:00:15;;;;;;;14.85;3.72;;;6.80;99.90;;;6.95;82.14;101220.47;5023945;28;20044;-62
2021/03/27 04:02:54;;;;;;;11.90;1.90;;;6.80;99.90;;;6.83;82.18;101226.22;5016174;28;20506;-61
2021/03/27 04:05:45;;;;;;;14.88;2.95;;;6.80;99.90;;;7.06;81.86;101239.09;5017451;28;20037;-63
2021/03/27 04:08:24;;;;;;;9.63;2.00;;;6.90;99.90;;;7.00;82.34;101223.53;5018885;28;20042;-64
2021/03/27 04:11:00;;;;;;;9.50;2.20;;;6.80;99.90;;;6.91;82.95;101228.91;5036016;28;20037;-65
2021/03/27 04:13:49;;;;;;;7.85;1.45;;;6.90;99.90;;;6.83;82.56;101223.50;5016870;28;20508;-64
2021/03/27 04:16:20;;;;;;;9.45;1.85;;;6.90;99.90;;;6.93;82.24;101235.00;5015247;28;20038;-63
2021/03/27 04:19:00;;;;;;;14.68;2.10;;;6.80;99.90;;;6.80;82.74;101233.81;4999754;28;20044;-63
2021/03/27 04:21:40;;;;;;;16.75;2.55;;;6.80;99.90;;;6.80;83.18;101242.78;5000335;28;20072;-63
2021/03/27 04:24:28;;;;;;;11.40;1.85;;;6.90;99.90;;;6.94;83.12;101257.50;5015453;28;20050;-62
2021/03/27 04:27:15;;;;;;;12.93;2.28;;;6.80;99.90;;;6.86;83.63;101244.81;5016334;28;20655;-62
2021/03/27 04:30:20;;;;;;;10.30;1.63;;;6.80;99.90;;;6.88;83.16;101237.38;5016545;28;20360;-64
2021/03/27 04:33:04;;;;;;;8.18;1.73;;;6.80;99.90;;;6.86;82.52;101249.38;5030315;28;20067;-63
2021/03/27 04:36:32;;;;;;;15.75;1.98;;;6.80;99.90;;;6.72;82.58;101259.00;5034121;28;20567;-64
2021/03/27 04:39:19;;;;;;;11.27;1.75;;;6.70;99.90;;;6.72;82.05;101269.81;5031326;28;20050;-62
2021/03/27 04:42:10;;;;;;;11.68;1.90;;;6.70;99.90;;;6.71;82.22;101262.69;5034770;28;20041;-63
2021/03/27 04:45:06;;;;;;;9.88;2.25;;;6.60;99.90;;;6.76;81.76;101254.97;5019613;28;20037;-64
2021/03/27 04:47:55;;;;;;;7.03;1.60;;;6.60;99.90;;;6.63;82.43;101249.16;5015092;28;20127;-63
2021/03/27 04:51:02;;;;;;;9.73;2.42;;;6.70;99.90;;;6.54;81.59;101260.97;5015687;28;20045;-62
2021/03/27 04:54:04;;;;;;;13.40;1.60;;;6.60;99.90;;;6.60;77.66;101281.94;5001725;28;20045;-63
2021/03/27 04:56:54;;;;;;;6.47;1.30;;;6.50;99.90;;;6.43;75.44;101272.09;5001115;28;20060;-61
2021/03/27 04:59:57;;;;;;;4.78;1.33;;;6.50;99.90;;;6.31;72.78;101281.50;5015064;28;20041;-61
2021/03/27 05:02:50;;;;;;;13.68;1.83;;;6.40;99.90;;;6.29;73.72;101289.75;5017118;28;20420;-64
2021/03/27 05:05:32;;;;;;;9.13;1.55;;;6.40;99.90;;;6.29;73.30;101305.13;5020298;28;20190;-62
2021/03/27 05:08:01;;;;;;;9.82;1.73;;;6.30;99.90;;;6.18;73.93;101304.41;5015111;28;20057;-62
2021/03/27 05:10:53;;;;;;;11.13;1.45;;;6.20;99.90;;;6.33;73.69;101309.19;5013030;28;20511;-63
2021/03/27 05:13:45;;;;;;;9.55;2.42;;;6.20;99.90;;;6.29;74.12;101315.94;5015873;28;21563;-62
2021/03/27 05:16:28;;;;;;;8.70;1.65;;;6.20;99.90;;;6.10;73.51;101323.25;5016023;28;20057;-64
2021/03/27 05:19:22;;;;;;;7.00;1.38;;;6.10;99.90;;;6.13;72.73;101327.50;5031213;28;20041;-63
2021/03/27 05:22:34;;;;;;;7.95;1.30;;;6.00;99.90;;;6.01;74.03;101332.34;5014402;28;20047;-63
2021/03/27 05:25:31;;;;;;;6.72;1.40;;;6.00;99.90;;;5.98;73.81;101345.34;5002348;28;20041;-61
2021/03/27 05:28:41;;;;;;;16.38;1.77;;;6.00;99.90;;;6.06;73.84;101348.94;5015638;28;20369;-60
2021/03/27 05:31:37;;;;;;;12.02;2.00;;;6.00;99.90;;;6.18;73.59;101353.06;5017098;28;20056;-61
2021/03/27 05:34:33;;;;;;;3.65;1.55;;;6.10;99.90;;;6.14;73.36;101361.63;5017117;28;20034;-60
2021/03/27 05:37:49;;;;;;;7.10;1.92;;;6.10;99.90;;;6.17;73.82;101372.13;5030162;28;20666;-60
2021/03/27 05:40:33;;;;;;;8.57;1.50;;;6.10;99.90;;;6.07;72.42;101377.66;5015365;28;20087;-62
2021/03/27 05:43:42;;;;;;;9.30;1.48;;;6.00;99.90;;;5.97;72.66;101382.31;5014293;28;20396;-61
2021/03/27 05:46:38;;;;;;;10.48;2.00;;;6.00;99.90;;;6.04;72.24;101382.50;5018282;28;20033;-60
2021/03/27 05:50:17;;;;;;;7.25;1.50;;;6.10;99.90;;;5.99;73.93;101385.69;5033088;28;20037;-60
2021/03/27 05:53:19;;;;;;;11.77;1.73;;;6.00;99.90;;;6.09;73.22;101389.16;4970075;28;20069;-60
2021/03/27 05:56:31;;;;;;;11.68;1.77;;;6.00;99.90;;;6.01;73.66;101394.47;5020814;28;20068;-61
2021/03/27 05:59:22;;;;;;;5.53;2.15;;;6.00;99.90;;;6.09;74.78;101396.41;5014544;28;21623;-64
2021/03/27 06:02:12;;;;;;;9.82;1.90;;;5.90;99.90;;;6.07;75.32;101415.50;5016416;28;20041;-62
2021/03/27 06:04:57;;;;;;;5.07;1.60;;;6.00;99.90;;;5.87;74.93;101408.50;5019191;28;20049;-62
2021/03/27 06:08:07;;;;;;;10.05;1.88;;;5.90;99.90;;;6.00;74.21;101417.09;5012644;28;20034;-60
2021/03/27 06:10:45;;;;;;;10.57;1.52;;;6.00;99.90;;;6.58;72.79;101416.50;5000079;28;20107;-62
2021/03/27 06:13:17;;;;;;;7.53;1.85;;;6.20;99.90;;;7.90;69.60;101417.59;5016198;28;20034;-64
2021/03/27 06:16:16;;;;;;;4.90;1.17;;;6.80;99.90;;;9.69;62.19;101426.88;5019157;28;20165;-64
2021/03/27 06:19:29;;;;;;;11.00;1.92;;;8.00;99.90;;;10.46;58.27;101422.16;5013536;28;20041;-64
2021/03/27 06:22:35;;;;;;;9.90;1.90;;;9.00;99.90;;;9.64;59.79;101431.16;5014559;28;20056;-62
2021/03/27 06:25:35;;;;;;;4.70;1.88;;;9.30;99.90;;;8.85;63.17;101430.34;5027111;28;20042;-63
2021/03/27 06:28:35;;;;;;;6.30;1.60;;;8.90;99.90;;;8.53;64.27;101447.56;4996595;28;20373;-61
2021/03/27 06:31:33;;;;;;;7.97;1.65;;;8.50;99.90;;;8.76;65.30;101449.53;5014272;28;20041;-60
2021/03/27 06:34:20;;;;;;;7.93;2.03;;;8.40;99.90;;;9.79;61.23;101451.94;5015093;28;20038;-64
2021/03/27 06:37:11;;;;;;;7.95;2.25;;;8.90;99.90;;;9.87;59.62;101458.34;5018562;28;20061;-64
2021/03/27 06:39:48;;;;;;;6.63;1.65;;;9.20;99.90;;;10.90;55.73;101452.16;5013789;28;20037;-64
2021/03/27 06:42:26;;;;;;;12.43;2.78;;;9.80;99.90;;;12.31;50.09;101465.34;5013096;28;20195;-61
2021/03/27 06:45:03;;;;;;;12.50;2.28;;;10.90;99.90;;;11.77;49.60;101465.84;5013899;28;20038;-61
2021/03/27 06:47:38;;;;;;;7.15;2.05;;;11.20;98.10;;;11.54;50.95;101467.88;5014604;28;20041;-61
2021/03/27 06:50:07;;;;;;;5.90;1.30;;;11.00;98.30;;;13.24;47.35;101469.59;5013666;28;20041;-62
2021/03/27 06:53:19;;;;;;;15.90;1.60;;;11.60;98.40;;;15.74;41.82;101475.16;5010117;28;20060;-61
2021/03/27 06:56:04;;;;;;;11.57;2.55;;;13.00;97.60;;;15.14;41.34;101473.66;5012383;28;21440;-62
2021/03/27 06:59:10;;;;;;;3.80;1.25;;;13.80;94.70;;;13.06;44.32;101489.25;5010489;28;20038;-62
2021/03/27 07:01:57;;;;;;;8.65;1.85;;;13.40;93.40;;;12.50;47.27;101499.34;5016077;28;20510;-62
2021/03/27 07:04:53;;;;;;;9.60;1.70;;;12.60;94.60;;;12.34;48.17;101497.72;5016970;28;20045;-64
2021/03/27 07:07:54;;;;;;;16.90;2.35;;;12.20;95.70;;;11.90;48.89;101506.94;5032219;28;20045;-62
2021/03/27 07:11:16;;;;;;;11.15;2.22;;;11.90;96.40;;;11.64;51.07;101495.66;4941183;28;20070;-64
2021/03/27 07:14:00;;;;;;;8.98;2.10;;;11.50;97.70;;;11.15;53.93;101509.94;5020843;28;20130;-64
2021/03/27 07:17:00;;;;;;;9.77;1.85;;;11.10;98.70;;;10.48;55.74;101522.69;5023750;28;20060;-64
2021/03/27 07:19:40;;;;;;;13.02;1.98;;;10.70;99.50;;;9.99;58.34;101522.16;5015470;28;20557;-65
2021/03/27 07:22:47;;;;;;;6.65;1.80;;;10.20;99.90;;;9.72;58.65;101521.63;5020289;28;20083;-64
2021/03/27 07:25:47;;;;;;;8.73;1.88;;;10.00;99.90;;;9.38;60.69;101532.00;5021242;28;20072;-63
2021/03/27 07:28:52;;;;;;;11.25;2.17;;;9.60;99.90;;;9.30;62.34;101526.59;5031349;28;20124;-63
2021/03/27 07:31:32;;;;;;;9.65;2.97;;;9.40;99.90;;;9.14;63.76;101537.53;5019208;28;20065;-65
2021/03/27 07:34:12;;;;;;;11.95;1.77;;;9.20;99.90;;;9.15;64.18;101550.06;5019377;28;20212;-62
2021/03/27 07:37:31;;;;;;;10.73;2.10;;;9.10;99.90;;;8.83;64.34;101546.41;5035162;28;20045;-63
2021/03/27 07:40:39;;;;;;;12.57;1.60;;;9.00;99.90;;;8.44;66.08;101561.69;5024472;28;20129;-64
2021/03/27 07:43:53;;;;;;;8.60;2.25;;;8.60;99.90;;;8.65;64.49;101559.31;5019252;28;20282;-63
2021/03/27 07:46:39;;;;;;;10.32;2.22;;;8.60;99.90;;;8.84;63.79;101574.38;5016295;28;20037;-61
2021/03/27 07:49:58;;;;;;;15.50;2.30;;;8.70;99.90;;;8.90;61.73;101571.84;5016286;28;20137;-61
2021/03/27 07:52:26;;;;;;;10.90;2.25;;;8.80;99.90;;;9.75;58.78;101575.66;5014221;28;20052;-61
2021/03/27 07:55:24;;;;;;;6.78;2.40;;;9.20;99.90;;;9.38;58.66;101584.47;5018131;28;20045;-63
2021/03/27 07:58:20;;;;;;;12.65;2.40;;;9.30;99.90;;;9.74;58.05;101584.00;5002075;28;20054;-64
2021/03/27 08:01:06;;;;;;;9.68;2.00;;;9.30;99.90;;;10.21;55.65;101608.44;5017656;28;20919;-62
2021/03/27 08:03:57;;;;;;;10.13;1.83;;;9.70;99.90;;;11.60;51.07;101587.94;5019902;28;20519;-64
2021/03/27 08:06:36;;;;;;;9.00;1.55;;;10.30;99.90;;;13.37;46.19;101600.94;5017844;28;20056;-62
2021/03/27 08:09:50;;;;;;;8.43;1.83;;;11.60;98.50;;;15.26;39.74;101606.34;5018487;28;20040;-64
2021/03/27 08:13:17;;;;;;;6.47;1.75;;;13.10;94.90;;;15.31;39.16;101612.06;5017606;28;20496;-62
2021/03/27 08:15:48;;;;;;;23.10;2.78;;;14.00;92.40;;;15.10;39.73;101628.75;5022880;28;20095;-65
2021/03/27 08:19:10;;;;;;;10.80;1.67;;;14.40;91.60;;;15.39;41.27;101636.53;5022638;28;20041;-64
2021/03/27 08:21:48;;;;;;;6.65;1.40;;;14.40;92.70;;;15.11;39.61;101633.19;5022217;28;20060;-65
2021/03/27 08:24:19;;;;;;;8.52;2.22;;;14.50;91.00;;;14.31;41.18;101632.16;5024335;28;20069;-65
2021/03/27 08:27:07;;;;;;;10.32;1.77;;;14.30;91.00;;;15.47;39.36;101652.75;5026574;28;20037;-65
2021/03/27 08:30:13;;;;;;;6.63;2.20;;;14.70;90.90;;;16.49;37.08;101654.78;5037030;28;20034;-63
2021/03/27 08:33:09;;;;;;;9.15;1.77;;;15.10;91.40;;;17.53;34.15;101661.66;5023922;28;20041;-65
2021/03/27 08:36:15;;;;;;;16.88;1.92;;;16.00;83.90;;;18.72;32.56;101672.22;5021602;28;20056;-64
2021/03/27 08:39:45;;;;;;;6.07;1.88;;;16.80;82.80;;;18.52;31.71;101673.28;5021820;28;20072;-66
2021/03/27 08:42:25;;;;;;;8.40;2.42;;;17.60;76.10;;;21.19;29.54;101690.03;4970768;28;20183;-65
2021/03/27 08:45:37;;;;;;;3.05;1.48;;;18.70;77.00;;;22.41;27.91;101701.06;5020971;28;20037;-63
2021/03/27 08:48:31;;;;;;;5.63;1.50;;;19.70;72.30;;;23.09;26.59;101694.09;5022914;28;20038;-65
2021/03/27 08:51:11;;;;;;;9.77;2.15;;;20.70;67.00;;;23.39;24.87;101693.50;5022032;28;20116;-61
2021/03/27 08:54:29;;;;;;;9.18;2.67;;;21.70;61.60;;;22.86;25.29;101704.66;5021516;28;20459;-65
2021/03/27 08:57:25;;;;;;;6.10;1.85;;;21.40;57.50;;;22.99;24.79;101712.59;5018751;28;20099;-62
2021/03/27 09:00:09;;;;;;;5.85;2.17;;;21.70;56.80;;;23.28;25.41;101716.75;5033970;28;20125;-63
2021/03/27 09:03:32;;;;;;;7.53;1.80;;;21.80;56.60;;;24.17;24.17;101727.19;5021573;28;20034;-65
2021/03/27 09:06:55;;;;;;;8.20;2.17;;;22.00;54.40;;;24.10;23.51;101729.38;4988755;28;20456;-67
2021/03/27 09:10:18;;;;;;;9.27;2.40;;;22.70;53.20;;;21.53;27.32;101739.94;4981513;28;20045;-66
2021/03/27 09:13:33;;;;;;;9.15;2.90;;;21.70;53.60;;;19.55;30.45;101741.22;5021937;28;20038;-64
2021/03/27 09:16:32;;;;;;;10.93;2.10;;;20.30;56.00;;;17.35;34.55;101758.81;5038157;28;20030;-62
2021/03/27 09:19:17;;;;;;;6.43;2.00;;;18.50;60.70;;;16.77;35.50;101769.94;5020450;28;20511;-63
2021/03/27 09:22:05;;;;;;;9.57;2.30;;;17.40;64.60;;;16.43;36.94;101770.25;5020644;28;20431;-61
2021/03/27 09:24:50;;;;;;;13.18;2.22;;;16.60;66.80;;;16.93;36.24;101752.91;5029172;28;20045;-63
2021/03/27 09:28:04;;;;;;;;;;;16.50;70.60;;;17.24;35.55;101768.63;5029706;28;20034;-62
2021/03/27 09:31:04;;;;;;;9.07;2.53;;;16.60;71.20;;;16.69;35.29;101778.44;5030618;28;19932;-62
2021/03/27 09:33:38;;;;;;;10.10;1.83;;;16.50;69.60;;;16.05;36.76;101773.72;5024258;28;20052;-66
2021/03/27 09:36:18;;;;;;;;;;;16.10;72.10;;;16.39;36.67;101790.97;5030329;28;20048;-63
2021/03/27 09:39:11;;;;;;;9.38;1.92;;;15.90;73.50;;;16.09;37.38;101802.47;5014100;28;19939;-66
2021/03/27 09:42:05;;;;;;;8.48;2.45;;;15.80;75.20;;;15.01;40.14;101808.25;5029441;28;20504;-64
2021/03/27 09:45:08;;;;;;;10.63;1.93;;;15.20;77.10;;;14.38;40.91;101807.47;5030778;28;20037;-62
2021/03/27 09:48:10;;;;;;;8.23;1.98;;;14.70;78.80;;;14.38;40.66;101815.69;5028068;28;20849;-68
2021/03/27 09:51:06;;;;;;;10.52;2.25;;;14.50;82.40;;;13.94;42.02;101811.41;5030883;28;20152;-61
2021/03/27 09:54:11;;;;;;;7.45;1.75;;;14.10;82.50;;;12.68;43.76;101825.63;5026689;28;20132;-63
2021/03/27 09:56:57;;;;;;;10.02;2.30;;;13.50;84.10;;;12.46;45.12;101839.38;5044317;28;20044;-66
2021/03/27 09:59:46;;;;;;;9.38;1.85;;;12.90;88.30;;;12.40;46.16;101838.25;5047121;28;20047;-64
2021/03/27 10:02:23;;;;;;;7.55;2.13;;;12.50;91.30;;;12.62;47.46;101837.31;5029412;28;20033;-63
2021/03/27 10:05:38;;;;;;;6.30;1.63;;;12.50;93.00;;;12.72;46.51;101848.78;5009014;28;20052;-66
2021/03/27 10:08:59;;;;;;;7.80;2.15;;;12.60;92.60;;;12.65;46.62;101858.75;5020253;28;20041;-65
2021/03/27 10:11:32;;;;;;;6.72;1.88;;;12.60;93.40;;;12.82;46.59;101864.03;5027027;28;20484;-63
2021/03/27 10:14:31;;;;;;;11.77;1.85;;;12.70;93.30;;;13.20;47.15;101862.88;5014282;28;20037;-64
2021/03/27 10:17:17;;;;;;;4.80;1.25;;;12.90;93.70;;;12.83;45.31;101852.09;5026441;28;20044;-63
2021/03/27 10:20:05;;;;;;;9.40;1.85;;;12.90;93.00;;;12.54;46.66;101872.91;5028927;28;20044;-65
2021/03/27 10:23:02;;;;;;;8.10;1.70;;;12.70;93.30;;;12.61;47.05;101890.25;5029337;28;20087;-64
2021/03/27 10:25:41;;;;;;;11.27;1.52;;;12.50;93.20;;;12.46;47.07;101885.81;5028562;28;20022;-65
2021/03/27 10:28:27;;;;;;;15.75;2.30;;;12.50;93.80;;;12.39;47.18;101895.78;5018921;28;20042;-66
2021/03/27 10:31:16;;;;;;;9.07;1.70;;;12.40;93.80;;;12.31;47.93;101904.88;5029496;28;20373;-64
2021/03/27 10:34:15;;;;;;;13.32;2.30;;;12.30;94.10;;;12.21;49.25;101909.78;5013466;28;20480;-65
2021/03/27 10:37:02;;;;;;;10.80;1.70;;;12.20;94.60;;;12.12;47.66;101910.88;5031488;28;20080;-65
2021/03/27 10:39:40;;;;;;;11.27;2.33;;;12.10;94.60;;;11.79;49.28;101916.63;5027912;28;20571;-66
2021/03/27 10:42:42;;;;;;;8.00;1.70;;;12.00;94.80;;;11.45;49.50;101918.84;5029442;28;20122;-65
2021/03/27 10:46:04;;;;;;;11.43;1.88;;;11.60;95.10;;;11.56;50.10;101921.16;4999664;28;20038;-65
2021/03/27 10:48:41;;;;;;;14.18;1.85;;;11.50;96.00;;;11.46;51.47;101928.75;5031467;28;20387;-64
2021/03/27 10:51:48;;;;;;;8.27;2.45;;;11.50;96.70;;;11.21;52.35;101941.66;5032094;28;20033;-65
2021/03/27 10:54:44;;;;;;;12.50;2.30;;;11.30;96.50;;;10.98;53.04;101935.28;5032134;28;20042;-65
2021/03/27 10:57:13;;;;;;;7.10;1.80;;;11.10;98.00;;;10.57;55.05;101950.91;5032562;28;20124;-64
2021/03/27 11:00:23;;;;;;;14.13;2.45;;;10.80;97.90;;;10.89;53.55;101967.16;5032885;28;20029;-62
2021/03/27 11:03:45;;;;;;;9.90;2.20;;;10.80;98.50;;;10.73;53.35;101945.38;5025128;28;20235;-65
2021/03/27 11:06:50;;;;;;;7.43;2.53;;;10.80;98.20;;;10.27;53.87;101958.72;5031874;28;20089;-64
2021/03/27 11:10:12;;;;;;;12.35;2.63;;;10.50;97.90;;;10.46;54.63;101972.00;5009923;28;20411;-66
2021/03/27 11:12:56;;;;;;;10.45;2.17;;;10.40;98.80;;;10.65;54.99;101975.38;5032832;28;20040;-64
2021/03/27 11:16:05;;;;;;;11.10;4.13;;;10.40;99.30;;;10.59;55.12;101986.97;5030917;28;20115;-64
2021/03/27 11:19:01;;;;;;;11.07;2.13;;;10.50;99.10;;;10.86;54.78;101994.72;5027922;28;20106;-65
2021/03/27 11:22:06;;;;;;;13.57;2.60;;;10.70;99.70;;;10.81;54.75;102008.03;5037159;28;20030;-66
2021/03/27 11:25:09;;;;;;;11.00;2.22;;;10.70;99.60;;;10.65;54.94;102010.78;5039319;28;20103;-65
2021/03/27 11:27:55;;;;;;;9.38;2.67;;;10.70;99.10;;;10.71;55.25;102008.22;5033085;28;20060;-63
2021/03/27 11:31:00;;;;;;;8.15;1.38;;;10.60;99.10;;;10.58;55.50;102013.34;5025201;28;20029;-64
2021/03/27 11:33:54;;;;;;;18.17;2.35;;;10.60;98.90;;;10.80;53.31;102018.06;5034550;28;20409;-63
2021/03/27 11:36:48;;;;;;;6.77;2.03;;;10.80;98.60;;;11.14;53.07;102026.00;5042577;28;20029;-63
2021/03/27 11:39:25;;;;;;;12.35;1.65;;;10.90;98.50;;;11.82;51.91;102019.94;5027848;28;20295;-62
2021/03/27 11:42:42;;;;;;;10.43;1.83;;;11.20;98.60;;;11.98;50.29;102030.72;5026071;28;20033;-66
2021/03/27 11:45:26;;;;;;;10.18;2.47;;;11.60;97.90;;;12.23;48.86;102033.28;4983780;28;20052;-66
2021/03/27 11:48:17;;;;;;;7.35;1.73;;;11.80;96.60;;;12.39;47.61;102035.91;5029953;28;20473;-64
2021/03/27 11:51:19;;;;;;;8.18;2.13;;;12.00;96.00;;;12.82;47.10;102050.72;5032243;28;20033;-64
2021/03/27 11:54:23;;;;;;;14.27;2.03;;;12.40;96.00;;;12.53;46.41;102046.00;5031258;28;20045;-64
2021/03/27 11:57:22;;;;;;;13.90;1.90;;;12.50;95.20;;;12.82;47.07;102047.97;5031609;28;20029;-63
2021/03/27 12:00:47;;;;;;;7.82;1.92;;;12.50;95.10;;;12.79;46.66;102050.22;5030983;28;20025;-64
2021/03/27 12:03:55;;;;;;;10.70;2.63;;;12.70;95.20;;;12.89;46.79;102061.72;5026278;28;20038;-64